createdAt,value
2022-08-09T00:01:00.255Z,18.375
2022-08-09T00:04:00.312Z,18.312
2022-08-09T00:06:59.794Z,18.312
2022-08-09T00:09:59.330Z,18.312
2022-08-09T00:12:58.558Z,18.312
2022-08-09T00:16:02.436Z,18.312
2022-08-09T00:18:58.725Z,18.312
2022-08-09T00:21:58.844Z,18.312
2022-08-09T00:24:59.344Z,18.312
2022-08-09T00:27:58.492Z,18.25
2022-08-09T00:30:59.521Z,18.25
2022-08-09T00:33:59.100Z,18.25
2022-08-09T00:36:59.363Z,18.25
2022-08-09T00:40:13.663Z,18.25
2022-08-09T00:44:10.644Z,18.25
2022-08-09T00:45:59.259Z,18.25
2022-08-09T00:48:58.782Z,18.25
2022-08-09T00:51:58.768Z,18.25
2022-08-09T00:54:58.739Z,18.25
2022-08-09T00:57:59.598Z,18.187
2022-08-09T01:00:59.985Z,18.187
2022-08-09T01:03:59.064Z,18.187
2022-08-09T01:06:58.998Z,18.187
2022-08-09T01:09:59.508Z,18.187
2022-08-09T01:12:58.691Z,18.187
2022-08-09T01:15:59.301Z,18.187
2022-08-09T01:19:02.492Z,18.187
2022-08-09T01:21:59.998Z,18.125
2022-08-09T01:24:59.188Z,18.125
2022-08-09T01:27:59.500Z,18.125
2022-08-09T01:30:59.954Z,18.125
2022-08-09T01:33:59.387Z,18.125
2022-08-09T01:36:59.282Z,18.125
2022-08-09T01:39:59.583Z,18.125
2022-08-09T01:42:59.690Z,18.125
2022-08-09T01:45:58.957Z,18.125
2022-08-09T01:49:00.281Z,18.062
2022-08-09T01:51:58.904Z,18.062
2022-08-09T01:54:59.147Z,18.062
2022-08-09T01:57:59.151Z,18.062
2022-08-09T02:00:59.922Z,18.062
2022-08-09T02:03:59.034Z,18.062
2022-08-09T02:06:59.083Z,18.062
2022-08-09T02:10:01.337Z,18.062
2022-08-09T02:12:59.011Z,18.0
2022-08-09T02:15:59.878Z,18.0
2022-08-09T02:18:59.459Z,18.0
2022-08-09T02:21:58.879Z,18.0
2022-08-09T02:24:58.946Z,18.0
2022-08-09T02:28:03.605Z,18.0
2022-08-09T02:30:59.402Z,18.0
2022-08-09T02:34:12.810Z,18.0
2022-08-09T02:36:59.660Z,18.0
2022-08-09T02:40:01.816Z,18.0
2022-08-09T02:42:59.928Z,17.937
2022-08-09T02:45:59.556Z,17.937
2022-08-09T02:48:59.115Z,17.937
2022-08-09T02:51:59.170Z,17.937
2022-08-09T02:54:58.827Z,17.937
2022-08-09T02:58:32.356Z,17.937
2022-08-09T03:01:04.239Z,17.937
2022-08-09T03:04:16.861Z,17.937
2022-08-09T03:06:59.796Z,17.937
2022-08-09T03:10:00.448Z,17.875
2022-08-09T03:12:59.870Z,17.875
2022-08-09T03:16:06.703Z,17.875
2022-08-09T03:18:58.832Z,17.875
2022-08-09T03:21:59.166Z,17.875
2022-08-09T03:25:25.723Z,17.875
2022-08-09T03:27:59.592Z,17.812
2022-08-09T03:30:59.080Z,17.812
2022-08-09T03:33:58.889Z,17.812
2022-08-09T03:37:00.071Z,17.812
2022-08-09T03:39:58.525Z,17.812
2022-08-09T03:42:59.027Z,17.812
2022-08-09T03:46:04.011Z,17.812
2022-08-09T03:48:59.518Z,17.812
2022-08-09T03:52:00.435Z,17.75
2022-08-09T03:54:59.300Z,17.75
2022-08-09T03:58:06.636Z,17.75
2022-08-09T04:00:59.254Z,17.75
2022-08-09T04:04:02.146Z,17.75
2022-08-09T04:06:59.319Z,17.75
2022-08-09T04:09:59.975Z,17.75
2022-08-09T04:13:00.705Z,17.75
2022-08-09T04:16:19.267Z,17.75
2022-08-09T04:18:59.999Z,17.75
2022-08-09T04:21:59.442Z,17.75
2022-08-09T04:24:59.846Z,17.687
2022-08-09T04:28:02.561Z,17.687
2022-08-09T04:30:59.875Z,17.687
2022-08-09T04:33:59.468Z,17.687
2022-08-09T04:36:59.425Z,17.687
2022-08-09T04:40:00.192Z,17.687
2022-08-09T04:42:59.653Z,17.687
2022-08-09T04:46:01.235Z,17.687
2022-08-09T04:48:58.841Z,17.687
2022-08-09T04:51:59.535Z,17.687
2022-08-09T04:54:58.656Z,17.687
2022-08-09T04:58:01.911Z,17.687
2022-08-09T05:00:59.900Z,17.625
2022-08-09T05:03:59.478Z,17.625
2022-08-09T05:06:59.402Z,17.625
2022-08-09T05:10:01.799Z,17.625
2022-08-09T05:12:59.268Z,17.625
2022-08-09T05:15:59.801Z,17.625
2022-08-09T05:19:00.291Z,17.625
2022-08-09T05:21:59.661Z,17.625
2022-08-09T05:25:02.419Z,17.625
2022-08-09T05:27:59.413Z,17.625
2022-08-09T05:30:59.625Z,17.625
2022-08-09T05:33:59.187Z,17.562
2022-08-09T05:36:58.937Z,17.562
2022-08-09T05:39:59.349Z,17.562
2022-08-09T05:42:58.943Z,17.562
2022-08-09T05:46:00.362Z,17.562
2022-08-09T05:48:59.874Z,17.562
2022-08-09T05:52:00.011Z,17.562
2022-08-09T05:55:03.257Z,17.562
2022-08-09T05:57:59.086Z,17.562
2022-08-09T06:01:00.570Z,17.562
2022-08-09T06:03:59.017Z,17.562
2022-08-09T06:06:59.953Z,17.562
2022-08-09T06:10:02.142Z,17.562
2022-08-09T06:13:11.717Z,17.562
2022-08-09T06:15:59.954Z,17.5
2022-08-09T06:18:59.029Z,17.5
2022-08-09T06:22:00.221Z,17.5
2022-08-09T06:24:59.293Z,17.562
2022-08-09T06:27:59.343Z,17.5
2022-08-09T06:30:59.632Z,17.5
2022-08-09T06:33:58.926Z,17.5
2022-08-09T06:37:00.042Z,17.5
2022-08-09T06:40:00.202Z,17.5
2022-08-09T06:42:59.716Z,17.5
2022-08-09T06:46:06.862Z,17.5
2022-08-09T06:49:00.307Z,17.5
2022-08-09T06:51:59.078Z,17.5
2022-08-09T06:54:58.815Z,17.5
2022-08-09T06:58:03.288Z,17.5
2022-08-09T07:00:59.861Z,17.5
2022-08-09T07:04:03.781Z,17.5
2022-08-09T07:07:00.932Z,17.5
2022-08-09T07:10:10.450Z,17.5
2022-08-09T07:12:59.731Z,17.5
2022-08-09T07:16:43.460Z,17.5
2022-08-09T07:18:59.772Z,17.5
2022-08-09T07:21:59.881Z,17.5
2022-08-09T07:24:59.142Z,17.5
2022-08-09T07:28:00.088Z,17.5
2022-08-09T07:31:00.065Z,17.5
2022-08-09T07:33:59.899Z,17.5
2022-08-09T07:37:02.688Z,17.5
2022-08-09T07:39:59.678Z,17.5
2022-08-09T07:42:59.167Z,17.5
2022-08-09T07:46:01.817Z,17.5
2022-08-09T07:49:00.286Z,17.5
2022-08-09T07:52:05.285Z,17.5
2022-08-09T07:54:59.598Z,17.5
2022-08-09T07:57:59.503Z,17.5
2022-08-09T08:01:06.322Z,17.562
2022-08-09T08:03:59.841Z,17.5
2022-08-09T08:07:00.163Z,17.5
2022-08-09T08:10:10.420Z,17.562
2022-08-09T08:12:59.052Z,17.562
2022-08-09T08:15:59.453Z,17.562
2022-08-09T08:18:59.327Z,17.562
2022-08-09T08:21:59.570Z,17.562
2022-08-09T08:24:59.994Z,17.562
2022-08-09T08:27:58.557Z,17.562
2022-08-09T08:31:06.109Z,17.562
2022-08-09T08:33:59.287Z,17.562
2022-08-09T08:37:01.296Z,17.562
2022-08-09T08:39:59.940Z,17.562
2022-08-09T08:42:59.389Z,17.562
2022-08-09T08:46:03.963Z,17.562
2022-08-09T08:48:59.359Z,17.562
2022-08-09T08:52:01.710Z,17.562
2022-08-09T08:54:58.652Z,17.562
2022-08-09T08:57:59.381Z,17.562
2022-08-09T09:00:59.161Z,17.562
2022-08-09T09:03:59.179Z,17.562
2022-08-09T09:06:58.586Z,17.625
2022-08-09T09:10:04.618Z,17.625
2022-08-09T09:12:59.057Z,17.625
2022-08-09T09:15:59.015Z,17.625
2022-08-09T09:19:22.426Z,17.625
2022-08-09T09:22:00.975Z,17.625
2022-08-09T09:25:39.293Z,17.625
2022-08-09T09:28:06.930Z,17.625
2022-08-09T09:30:58.771Z,17.625
2022-08-09T09:33:59.686Z,17.625
2022-08-09T09:36:59.054Z,17.625
2022-08-09T09:40:00.019Z,17.625
2022-08-09T09:42:58.601Z,17.625
2022-08-09T09:46:41.951Z,17.625
2022-08-09T09:48:58.809Z,17.625
2022-08-09T09:51:59.043Z,17.687
2022-08-09T09:54:58.719Z,17.687
2022-08-09T09:58:01.133Z,17.687
2022-08-09T10:01:00.081Z,17.687
2022-08-09T10:03:59.585Z,17.687
2022-08-09T10:06:58.253Z,17.687
2022-08-09T10:09:59.344Z,17.687
2022-08-09T10:13:00.031Z,17.687
2022-08-09T10:16:54.416Z,17.687
2022-08-09T10:18:59.813Z,17.687
2022-08-09T10:21:59.012Z,17.75
2022-08-09T10:24:58.542Z,17.75
2022-08-09T10:27:58.932Z,17.75
2022-08-09T10:34:18.800Z,17.75
2022-08-09T10:36:58.825Z,17.75
2022-08-09T10:39:59.479Z,17.812
2022-08-09T10:42:59.329Z,17.812
2022-08-09T10:46:00.298Z,17.812
2022-08-09T10:48:58.849Z,17.812
2022-08-09T10:51:58.856Z,17.812
2022-08-09T10:54:58.746Z,17.812
2022-08-09T10:58:00.121Z,17.812
2022-08-09T11:03:06.530Z,17.875
2022-08-09T11:04:27.721Z,17.875
2022-08-09T11:07:00.345Z,17.875
2022-08-09T11:09:59.805Z,17.875
2022-08-09T11:12:58.626Z,17.875
2022-08-09T11:16:04.635Z,17.875
2022-08-09T11:18:59.254Z,17.875
2022-08-09T11:22:10.377Z,17.937
2022-08-09T11:24:58.334Z,17.937
2022-08-09T11:28:08.153Z,17.937
2022-08-09T11:30:59.136Z,17.937
2022-08-09T11:33:58.951Z,17.937
2022-08-09T11:36:59.030Z,17.937
2022-08-09T11:39:59.463Z,17.937
2022-08-09T11:42:59.059Z,17.937
2022-08-09T11:45:58.814Z,18.0
2022-08-09T11:48:58.731Z,18.0
2022-08-09T11:53:11.404Z,18.0
2022-08-09T11:54:57.787Z,18.062
2022-08-09T11:58:02.392Z,18.062
2022-08-09T12:00:58.703Z,18.062
2022-08-09T12:03:58.443Z,18.125
2022-08-09T12:06:58.686Z,18.125
2022-08-09T12:09:59.577Z,18.125
2022-08-09T12:12:59.443Z,18.125
2022-08-09T12:16:01.514Z,18.187
2022-08-09T12:18:59.477Z,18.187
2022-08-09T12:21:58.757Z,18.187
2022-08-09T12:24:58.367Z,18.25
2022-08-09T12:29:14.709Z,18.25
2022-08-09T12:30:58.623Z,18.25
2022-08-09T12:34:01.343Z,18.312
2022-08-09T12:36:58.945Z,18.375
2022-08-09T12:39:59.039Z,18.375
2022-08-09T12:42:59.363Z,18.375
2022-08-09T12:46:00.492Z,18.437
2022-08-09T12:48:59.020Z,18.437
2022-08-09T12:52:01.541Z,18.5
2022-08-09T12:55:03.112Z,18.5
2022-08-09T12:57:59.198Z,18.5
2022-08-09T13:00:59.514Z,18.562
2022-08-09T13:03:59.413Z,18.562
2022-08-09T13:06:58.845Z,18.625
2022-08-09T13:10:01.531Z,18.625
2022-08-09T13:13:09.026Z,18.625
2022-08-09T13:15:59.358Z,18.687
2022-08-09T13:18:58.854Z,18.687
2022-08-09T13:22:37.695Z,18.75
2022-08-09T13:24:59.071Z,18.75
2022-08-09T13:27:58.580Z,18.75
2022-08-09T13:32:15.020Z,18.75
2022-08-09T13:33:59.135Z,18.75
2022-08-09T13:36:58.691Z,18.875
2022-08-09T13:41:50.737Z,18.875
2022-08-09T13:42:58.609Z,18.875
2022-08-09T13:46:43.633Z,18.937
2022-08-09T13:48:58.483Z,18.937
2022-08-09T13:52:01.102Z,19.0
2022-08-09T13:55:02.185Z,19.0
2022-08-09T13:57:59.529Z,19.0
2022-08-09T14:00:59.408Z,19.062
2022-08-09T14:04:02.578Z,19.062
2022-08-09T14:06:58.859Z,19.062
2022-08-09T14:09:59.885Z,19.125
2022-08-09T14:12:59.332Z,19.125
2022-08-09T14:16:06.499Z,19.125
2022-08-09T14:18:59.654Z,19.187
2022-08-09T14:21:59.801Z,19.187
2022-08-09T14:24:59.842Z,19.187
2022-08-09T14:27:59.958Z,19.25
2022-08-09T14:30:59.027Z,19.25
2022-08-09T14:33:59.091Z,19.25
2022-08-09T14:36:59.629Z,19.25
2022-08-09T14:39:59.348Z,19.312
2022-08-09T14:42:59.191Z,19.312
2022-08-09T14:47:00.749Z,19.312
2022-08-09T14:48:59.253Z,19.312
2022-08-09T14:52:01.990Z,19.312
2022-08-09T14:54:58.830Z,19.375
2022-08-09T14:57:59.333Z,19.375
2022-08-09T15:01:04.719Z,19.375
2022-08-09T15:03:58.775Z,19.375
2022-08-09T15:06:58.586Z,19.375
2022-08-09T15:10:07.656Z,19.375
2022-08-09T15:12:59.057Z,19.375
2022-08-09T15:15:58.717Z,19.375
2022-08-09T15:18:59.774Z,19.375
2022-08-09T15:22:02.259Z,19.437
2022-08-09T15:24:58.830Z,19.375
2022-08-09T15:28:01.103Z,19.437
2022-08-09T15:31:11.701Z,19.375
2022-08-09T15:34:17.574Z,19.375
2022-08-09T15:36:59.651Z,19.437
2022-08-09T15:39:59.878Z,19.437
2022-08-09T15:42:59.763Z,19.437
2022-08-09T15:46:28.107Z,19.437
2022-08-09T15:49:20.899Z,19.437
2022-08-09T15:52:04.776Z,19.437
2022-08-09T15:54:59.528Z,19.437
2022-08-09T15:57:59.425Z,19.437
2022-08-09T16:00:59.589Z,19.437
2022-08-09T16:03:59.221Z,19.437
2022-08-09T16:06:59.293Z,19.437
2022-08-09T16:10:04.534Z,19.437
2022-08-09T16:12:59.203Z,19.437
2022-08-09T16:16:04.363Z,19.375
2022-08-09T16:18:59.068Z,19.437
2022-08-09T16:21:59.158Z,19.437
2022-08-09T16:24:59.723Z,19.375
2022-08-09T16:27:59.633Z,19.375
2022-08-09T16:30:59.863Z,19.375
2022-08-09T16:34:04.077Z,19.375
2022-08-09T16:36:59.949Z,19.375
2022-08-09T16:40:05.628Z,19.375
2022-08-09T16:42:59.441Z,19.375
2022-08-09T16:45:59.843Z,19.375
2022-08-09T16:49:12.653Z,19.375
2022-08-09T16:51:59.028Z,19.375
2022-08-09T16:54:59.881Z,19.375
2022-08-09T16:58:09.887Z,19.375
2022-08-09T17:01:00.252Z,19.375
2022-08-09T17:03:59.172Z,19.375
2022-08-09T17:08:41.625Z,19.375
2022-08-09T17:10:01.857Z,19.375
2022-08-09T17:12:59.435Z,19.312
2022-08-09T17:16:00.127Z,19.312
2022-08-09T17:18:59.468Z,19.312
2022-08-09T17:21:58.891Z,19.312
2022-08-09T17:25:03.055Z,19.312
2022-08-09T17:27:59.416Z,19.312
2022-08-09T17:31:01.694Z,19.312
2022-08-09T17:33:58.950Z,19.312
2022-08-09T17:36:58.747Z,19.312
2022-08-09T17:39:59.374Z,19.312
2022-08-09T17:43:10.839Z,19.312
2022-08-09T17:46:03.554Z,19.312
2022-08-09T17:48:58.797Z,19.25
2022-08-09T17:51:58.825Z,19.312
2022-08-09T17:54:58.571Z,19.25
2022-08-09T17:58:03.007Z,19.25
2022-08-09T18:01:25.999Z,19.25
2022-08-09T18:03:59.138Z,19.25
2022-08-09T18:06:58.825Z,19.25
2022-08-09T18:10:04.546Z,19.25
2022-08-09T18:13:53.573Z,19.25
2022-08-09T18:16:07.632Z,19.25
2022-08-09T18:19:03.469Z,19.25
2022-08-09T18:21:58.885Z,19.25
2022-08-09T18:24:58.615Z,19.25
2022-08-09T18:28:02.142Z,19.25
2022-08-09T18:30:59.369Z,19.25
2022-08-09T18:33:58.422Z,19.25
2022-08-09T18:36:59.173Z,19.187
2022-08-09T18:39:59.517Z,19.187
2022-08-09T18:42:58.497Z,19.187
2022-08-09T18:46:46.218Z,19.187
2022-08-09T18:49:01.814Z,19.187
2022-08-09T18:51:59.419Z,19.187
2022-08-09T18:54:58.459Z,19.187
2022-08-09T18:57:58.233Z,19.187
2022-08-09T19:00:59.514Z,19.187
2022-08-09T19:04:05.948Z,19.187
2022-08-09T19:06:58.398Z,19.187
2022-08-09T19:10:14.368Z,19.187
2022-08-09T19:13:16.504Z,19.187
2022-08-09T19:15:59.614Z,19.187
2022-08-09T19:18:58.710Z,19.187
2022-08-09T19:22:06.334Z,19.187
2022-08-09T19:25:07.601Z,19.187
2022-08-09T19:27:58.882Z,19.125
2022-08-09T19:30:59.483Z,19.125
2022-08-09T19:33:58.913Z,19.125
2022-08-09T19:36:58.863Z,19.125
2022-08-09T19:40:05.072Z,19.125
2022-08-09T19:42:59.044Z,19.125
2022-08-09T19:45:59.238Z,19.125
2022-08-09T19:49:00.385Z,19.125
2022-08-09T19:51:59.740Z,19.125
2022-08-09T19:54:59.757Z,19.125
2022-08-09T19:57:58.642Z,19.125
2022-08-09T20:00:59.438Z,19.125
2022-08-09T20:04:17.341Z,19.125
2022-08-09T20:06:58.720Z,19.125
2022-08-09T20:09:59.057Z,19.125
2022-08-09T20:13:00.230Z,19.125
2022-08-09T20:16:33.818Z,19.062
2022-08-09T20:19:42.966Z,19.062
2022-08-09T20:22:00.180Z,19.062
2022-08-09T20:24:59.387Z,19.062
2022-08-09T20:27:58.919Z,19.062
2022-08-09T20:30:59.324Z,19.062
2022-08-09T20:34:02.161Z,19.062
2022-08-09T20:36:59.409Z,19.062
2022-08-09T20:40:17.649Z,19.062
2022-08-09T20:43:00.259Z,19.062
2022-08-09T20:46:15.169Z,19.062
2022-08-09T20:48:58.893Z,19.062
2022-08-09T20:52:00.306Z,19.0
2022-08-09T20:54:58.745Z,19.0
2022-08-09T20:58:08.081Z,19.0
2022-08-09T21:01:14.271Z,19.0
2022-08-09T21:05:49.521Z,19.0
2022-08-09T21:06:59.844Z,19.0
2022-08-09T21:09:58.786Z,19.0
2022-08-09T21:15:59.182Z,19.0
2022-08-09T21:19:01.436Z,19.0
2022-08-09T21:21:59.706Z,19.0
2022-08-09T21:24:59.949Z,19.0
2022-08-09T21:27:58.962Z,19.0
2022-08-09T21:30:59.220Z,18.937
2022-08-09T21:33:59.288Z,18.937
2022-08-09T21:36:59.529Z,18.937
2022-08-09T21:39:58.898Z,18.937
2022-08-09T21:42:58.965Z,18.937
2022-08-09T21:45:59.107Z,18.937
2022-08-09T21:48:58.812Z,18.937
2022-08-09T21:51:59.041Z,18.937
2022-08-09T21:55:03.698Z,18.937
2022-08-09T21:58:00.276Z,18.875
2022-08-09T22:00:59.686Z,18.937
2022-08-09T22:03:59.533Z,18.875
2022-08-09T22:06:59.169Z,18.875
2022-08-09T22:09:58.860Z,18.875
2022-08-09T22:12:58.398Z,18.875
2022-08-09T22:15:59.528Z,18.875
2022-08-09T22:18:59.380Z,18.875
2022-08-09T22:21:59.246Z,18.875
2022-08-09T22:26:07.259Z,18.812
2022-08-09T22:27:59.044Z,18.812
2022-08-09T22:30:59.545Z,18.812
2022-08-09T22:33:58.842Z,18.812
2022-08-09T22:36:59.012Z,18.812
2022-08-09T22:39:59.209Z,18.812
2022-08-09T22:42:59.111Z,18.812
2022-08-09T22:48:15.361Z,18.812
2022-08-09T22:49:00.053Z,18.812
2022-08-09T22:51:59.105Z,18.812
2022-08-09T22:54:58.759Z,18.812
2022-08-09T22:57:59.847Z,18.75
2022-08-09T23:00:59.802Z,18.75
2022-08-09T23:04:03.833Z,18.75
2022-08-09T23:06:58.493Z,18.75
2022-08-09T23:09:59.646Z,18.75
2022-08-09T23:12:58.477Z,18.75
2022-08-09T23:16:03.263Z,18.75
2022-08-09T23:18:59.305Z,18.687
2022-08-09T23:21:58.437Z,18.687
2022-08-09T23:24:59.134Z,18.687
2022-08-09T23:28:15.346Z,18.687
2022-08-09T23:31:09.189Z,18.687
2022-08-09T23:33:58.219Z,18.687
2022-08-09T23:36:59.247Z,18.687
2022-08-09T23:39:59.415Z,18.687
2022-08-09T23:42:58.268Z,18.625
2022-08-09T23:45:59.139Z,18.625
2022-08-09T23:48:59.090Z,18.625
2022-08-09T23:51:58.925Z,18.625
2022-08-09T23:54:58.981Z,18.625
2022-08-09T23:58:10.345Z,18.625
